createdAt,value
2022-07-29T00:00:03.816Z,63.80
2022-07-29T00:03:07.103Z,63.80
2022-07-29T00:06:11.863Z,65.30
2022-07-29T00:09:15.652Z,64.10
2022-07-29T00:12:25.184Z,65.10
2022-07-29T00:15:29.550Z,64.10
2022-07-29T00:18:33.059Z,64.10
2022-07-29T00:21:37.758Z,62.70
2022-07-29T00:24:40.939Z,63.90
2022-07-29T00:27:44.097Z,63.80
2022-07-29T00:30:47.375Z,64.80
2022-07-29T00:33:50.553Z,63.10
2022-07-29T00:36:54.096Z,64.20
2022-07-29T00:39:57.927Z,64.20
2022-07-29T00:43:02.860Z,64.30
2022-07-29T00:46:06.307Z,64.30
2022-07-29T00:49:09.801Z,64.40
2022-07-29T00:52:16.836Z,64.90
2022-07-29T00:55:20.824Z,64.50
2022-07-29T00:58:24.812Z,63.50
2022-07-29T01:01:29.510Z,64.50
2022-07-29T01:04:34.364Z,64.20
2022-07-29T01:07:39.728Z,64.20
2022-07-29T01:10:45.952Z,64.40
2022-07-29T01:13:50.437Z,64.60
2022-07-29T01:17:04.318Z,64.50
2022-07-29T01:20:16.994Z,63.80
2022-07-29T01:24:05.346Z,65.20
2022-07-29T01:27:34.715Z,65.90
2022-07-29T01:30:44.073Z,66.10
2022-07-29T01:33:54.834Z,65.10
2022-07-29T01:37:08.592Z,65.10
2022-07-29T01:40:22.606Z,64.10
2022-07-29T01:43:34.762Z,65.50
2022-07-29T01:46:46.318Z,64.90
2022-07-29T01:49:55.051Z,65.60
2022-07-29T01:53:04.009Z,65.40
2022-07-29T01:56:12.293Z,65.40
2022-07-29T01:59:18.050Z,65.70
2022-07-29T02:02:24.694Z,65.50
2022-07-29T02:05:31.229Z,64.70
2022-07-29T02:08:36.396Z,66.00
2022-07-29T02:11:41.610Z,64.70
2022-07-29T02:14:51.099Z,66.00
2022-07-29T02:18:01.963Z,66.40
2022-07-29T02:21:07.302Z,66.70
2022-07-29T02:24:20.318Z,67.30
2022-07-29T02:27:27.440Z,66.50
2022-07-29T02:30:33.270Z,66.80
2022-07-29T02:33:39.800Z,66.40
2022-07-29T02:36:45.901Z,66.40
2022-07-29T02:39:56.663Z,66.30
2022-07-29T02:43:00.879Z,66.70
2022-07-29T02:46:06.660Z,66.40
2022-07-29T02:49:39.699Z,67.30
2022-07-29T02:52:49.109Z,66.70
2022-07-29T02:55:59.077Z,67.40
2022-07-29T02:59:08.364Z,66.70
2022-07-29T03:02:15.426Z,66.50
2022-07-29T03:05:23.102Z,67.00
2022-07-29T03:08:28.412Z,66.70
2022-07-29T03:11:45.972Z,68.00
2022-07-29T03:14:55.304Z,66.60
2022-07-29T03:17:59.017Z,66.60
2022-07-29T03:21:05.239Z,66.60
2022-07-29T03:24:10.830Z,67.00
2022-07-29T03:27:14.436Z,67.00
2022-07-29T03:30:22.294Z,67.90
2022-07-29T03:33:25.800Z,67.50
2022-07-29T03:36:30.408Z,67.50
2022-07-29T03:39:42.325Z,68.00
2022-07-29T03:42:47.792Z,69.30
2022-07-29T03:45:56.487Z,67.70
2022-07-29T03:49:05.014Z,67.80
2022-07-29T03:52:10.960Z,68.30
2022-07-29T03:55:14.963Z,67.80
2022-07-29T03:58:20.723Z,69.00
2022-07-29T04:01:26.811Z,68.40
2022-07-29T04:04:30.363Z,68.10
2022-07-29T04:07:34.968Z,68.20
2022-07-29T04:10:39.788Z,69.20
2022-07-29T04:13:43.121Z,68.20
2022-07-29T04:16:46.399Z,69.40
2022-07-29T04:19:49.567Z,68.70
2022-07-29T04:22:54.059Z,68.80
2022-07-29T04:25:57.195Z,69.30
2022-07-29T04:29:00.323Z,69.40
2022-07-29T04:32:03.618Z,69.30
2022-07-29T04:35:07.790Z,69.50
2022-07-29T04:38:15.795Z,69.90
2022-07-29T04:41:20.822Z,71.20
2022-07-29T04:44:28.620Z,72.00
2022-07-29T04:47:32.427Z,71.80
2022-07-29T04:50:35.676Z,72.20
2022-07-29T04:53:40.320Z,71.50
2022-07-29T04:56:43.630Z,69.90
2022-07-29T04:59:46.758Z,69.50
2022-07-29T05:02:49.993Z,67.00
2022-07-29T05:05:53.277Z,66.30
2022-07-29T05:08:57.973Z,64.90
2022-07-29T05:12:01.203Z,62.90
2022-07-29T05:15:04.757Z,62.00
2022-07-29T05:18:08.193Z,60.90
2022-07-29T05:21:12.827Z,59.60
2022-07-29T05:24:18.831Z,57.70
2022-07-29T05:27:22.641Z,56.50
2022-07-29T05:30:25.951Z,56.20
2022-07-29T05:33:36.075Z,55.50
2022-07-29T05:36:40.560Z,54.80
2022-07-29T05:39:48.672Z,54.30
2022-07-29T05:42:53.971Z,53.30
2022-07-29T05:45:57.698Z,52.30
2022-07-29T05:49:00.785Z,51.90
2022-07-29T05:52:04.081Z,51.80
2022-07-29T05:55:09.915Z,50.60
2022-07-29T05:58:13.443Z,49.30
2022-07-29T06:01:17.127Z,49.50
2022-07-29T06:04:20.865Z,49.40
2022-07-29T06:07:24.295Z,49.50
2022-07-29T06:10:28.968Z,49.50
2022-07-29T06:13:33.210Z,48.90
2022-07-29T06:16:37.992Z,48.80
2022-07-29T06:19:41.522Z,48.50
2022-07-29T06:22:44.934Z,48.30
2022-07-29T06:25:49.546Z,48.00
2022-07-29T06:28:52.720Z,48.00
2022-07-29T06:31:55.870Z,47.90
2022-07-29T06:35:17.751Z,47.40
2022-07-29T06:38:29.971Z,47.30
2022-07-29T06:41:37.456Z,47.30
2022-07-29T06:44:40.699Z,47.60
2022-07-29T06:47:43.926Z,47.30
2022-07-29T06:50:47.166Z,47.30
2022-07-29T06:53:59.979Z,47.20
2022-07-29T06:57:07.723Z,46.70
2022-07-29T07:00:12.882Z,46.40
2022-07-29T07:03:16.275Z,45.70
2022-07-29T07:06:19.437Z,46.10
2022-07-29T07:09:22.574Z,45.90
2022-07-29T07:12:27.235Z,45.70
2022-07-29T07:15:39.341Z,45.50
2022-07-29T07:18:43.151Z,45.80
2022-07-29T07:21:46.277Z,46.30
2022-07-29T07:24:49.747Z,46.50
2022-07-29T07:27:54.586Z,46.50
2022-07-29T07:30:57.868Z,46.70
2022-07-29T07:34:01.036Z,46.70
2022-07-29T07:37:04.214Z,46.60
2022-07-29T07:40:09.101Z,47.10
2022-07-29T07:43:13.626Z,47.20
2022-07-29T07:46:17.412Z,47.00
2022-07-29T07:49:20.680Z,47.40
2022-07-29T07:52:24.632Z,47.80
2022-07-29T07:55:28.442Z,47.80
2022-07-29T07:58:32.997Z,48.60
2022-07-29T08:01:48.006Z,48.80
2022-07-29T08:05:00.473Z,49.00
2022-07-29T08:08:03.659Z,49.20
2022-07-29T08:11:09.719Z,49.90
2022-07-29T08:14:15.049Z,50.20
2022-07-29T08:17:18.514Z,50.40
2022-07-29T08:20:21.791Z,50.90
2022-07-29T08:23:25.441Z,51.30
2022-07-29T08:26:28.732Z,51.40
2022-07-29T08:29:33.264Z,51.70
2022-07-29T08:32:53.091Z,51.60
2022-07-29T08:35:57.289Z,51.80
2022-07-29T08:39:02.332Z,51.60
2022-07-29T08:42:05.957Z,52.10
2022-07-29T08:45:11.829Z,51.70
2022-07-29T08:48:18.038Z,51.60
2022-07-29T08:51:22.723Z,51.80
2022-07-29T08:54:26.884Z,52.30
2022-07-29T08:57:32.812Z,51.60
2022-07-29T09:00:43.570Z,52.10
2022-07-29T09:03:49.271Z,52.60
2022-07-29T09:07:00.259Z,51.40
2022-07-29T09:10:06.767Z,51.40
2022-07-29T09:13:10.038Z,51.20
2022-07-29T09:16:31.660Z,51.40
2022-07-29T09:19:39.763Z,51.50
2022-07-29T09:22:50.343Z,51.90
2022-07-29T09:25:53.595Z,51.80
2022-07-29T09:28:56.805Z,52.20
2022-07-29T09:32:01.496Z,52.30
2022-07-29T09:35:23.227Z,52.70
2022-07-29T09:38:26.799Z,53.80
2022-07-29T09:41:30.604Z,53.00
2022-07-29T09:44:45.922Z,53.00
2022-07-29T09:47:50.975Z,53.10
2022-07-29T09:50:54.885Z,52.90
2022-07-29T09:53:58.132Z,52.80
2022-07-29T09:57:01.345Z,52.90
2022-07-29T10:00:09.845Z,52.70
2022-07-29T10:03:15.466Z,52.70
2022-07-29T10:06:18.812Z,52.70
2022-07-29T10:09:22.285Z,52.60
2022-07-29T10:12:26.792Z,52.80
2022-07-29T10:15:33.764Z,53.20
2022-07-29T10:18:41.113Z,53.00
2022-07-29T10:21:45.827Z,52.90
2022-07-29T10:24:49.227Z,53.00
2022-07-29T10:27:53.226Z,52.90
2022-07-29T10:31:03.612Z,52.50
2022-07-29T10:34:23.728Z,52.90
2022-07-29T10:37:45.978Z,53.10
2022-07-29T10:41:24.245Z,53.30
2022-07-29T10:44:28.952Z,53.30
2022-07-29T10:47:35.240Z,52.40
2022-07-29T10:51:01.228Z,51.80
2022-07-29T10:54:07.418Z,51.30
2022-07-29T10:57:20.860Z,51.40
2022-07-29T11:00:34.884Z,50.90
2022-07-29T11:03:53.717Z,52.10
2022-07-29T11:07:11.518Z,51.00
2022-07-29T11:10:31.358Z,51.50
2022-07-29T11:13:53.145Z,50.80
2022-07-29T11:17:06.228Z,51.10
2022-07-29T11:20:39.794Z,51.90
2022-07-29T11:23:45.179Z,51.60
2022-07-29T11:27:10.115Z,51.70
2022-07-29T11:33:56.083Z,52.50
2022-07-29T11:37:28.187Z,52.00
2022-07-29T11:41:27.403Z,52.60
2022-07-29T11:44:56.766Z,52.70
2022-07-29T11:48:28.773Z,52.60
2022-07-29T11:51:32.781Z,52.50
2022-07-29T11:54:57.129Z,52.50
2022-07-29T11:58:03.908Z,52.90
2022-07-29T12:01:07.841Z,53.10
2022-07-29T12:04:11.612Z,52.20
2022-07-29T12:07:17.083Z,53.30
2022-07-29T12:10:29.976Z,53.70
2022-07-29T12:13:41.728Z,53.90
2022-07-29T12:16:45.335Z,54.40
2022-07-29T12:19:48.691Z,54.30
2022-07-29T12:22:55.624Z,55.30
2022-07-29T12:26:01.099Z,54.50
2022-07-29T12:29:11.521Z,54.70
2022-07-29T12:32:19.746Z,55.10
2022-07-29T12:35:23.677Z,54.60
2022-07-29T12:38:27.494Z,54.80
2022-07-29T12:41:31.124Z,54.80
2022-07-29T12:44:52.645Z,55.50
2022-07-29T12:47:56.513Z,55.60
2022-07-29T12:51:02.555Z,55.50
2022-07-29T12:54:11.316Z,55.70
2022-07-29T12:57:20.176Z,56.00
2022-07-29T13:00:26.389Z,56.10
2022-07-29T13:03:30.184Z,56.50
2022-07-29T13:06:42.577Z,56.60
2022-07-29T13:09:49.529Z,56.70
2022-07-29T13:13:10.570Z,57.00
2022-07-29T13:16:15.587Z,57.20
2022-07-29T13:19:18.806Z,57.40
2022-07-29T13:22:26.714Z,57.40
2022-07-29T13:25:32.666Z,57.60
2022-07-29T13:28:36.338Z,57.60
2022-07-29T13:31:41.015Z,57.70
2022-07-29T13:34:44.179Z,58.00
2022-07-29T13:37:47.586Z,58.10
2022-07-29T13:40:50.821Z,58.40
2022-07-29T13:43:53.984Z,58.60
2022-07-29T13:46:59.945Z,58.70
2022-07-29T13:50:03.590Z,59.10
2022-07-29T13:53:08.576Z,59.40
2022-07-29T13:56:11.862Z,59.50
2022-07-29T13:59:15.267Z,59.30
2022-07-29T14:02:19.872Z,59.70
2022-07-29T14:05:23.076Z,59.70
2022-07-29T14:08:26.307Z,59.10
2022-07-29T14:11:29.634Z,59.50
2022-07-29T14:14:33.448Z,59.50
2022-07-29T14:17:38.052Z,59.20
2022-07-29T14:20:41.360Z,59.50
2022-07-29T14:23:46.066Z,59.20
2022-07-29T14:26:50.909Z,59.20
2022-07-29T14:29:54.194Z,59.30
2022-07-29T14:32:58.748Z,59.20
2022-07-29T14:36:01.990Z,59.40
2022-07-29T14:39:05.473Z,58.70
2022-07-29T14:42:09.245Z,59.00
2022-07-29T14:45:12.595Z,59.10
2022-07-29T14:48:17.291Z,59.10
2022-07-29T14:51:20.595Z,58.80
2022-07-29T14:54:24.020Z,59.30
2022-07-29T14:57:27.264Z,58.40
2022-07-29T15:00:33.193Z,59.00
2022-07-29T15:03:37.837Z,57.80
2022-07-29T15:06:41.051Z,57.40
2022-07-29T15:09:49.666Z,58.00
2022-07-29T15:12:53.439Z,57.20
2022-07-29T15:16:00.052Z,57.00
2022-07-29T15:19:05.239Z,56.70
2022-07-29T15:22:08.395Z,56.40
2022-07-29T15:25:12.233Z,56.10
2022-07-29T15:28:15.807Z,56.30
2022-07-29T15:31:20.032Z,56.60
2022-07-29T15:34:25.204Z,56.40
2022-07-29T15:37:29.298Z,56.30
2022-07-29T15:40:52.238Z,56.10
2022-07-29T15:43:55.523Z,55.90
2022-07-29T15:47:04.705Z,56.00
2022-07-29T15:50:15.699Z,55.90
2022-07-29T15:53:18.853Z,55.90
2022-07-29T15:56:22.464Z,55.90
2022-07-29T15:59:26.517Z,55.80
2022-07-29T16:02:29.592Z,55.50
2022-07-29T16:05:34.217Z,54.80
2022-07-29T16:08:37.637Z,55.20
2022-07-29T16:11:41.027Z,55.00
2022-07-29T16:14:44.518Z,54.90
2022-07-29T16:17:47.890Z,55.10
2022-07-29T16:20:52.494Z,55.20
2022-07-29T16:23:55.765Z,55.50
2022-07-29T16:26:59.615Z,56.20
2022-07-29T16:30:02.932Z,55.70
2022-07-29T16:33:08.329Z,56.40
2022-07-29T16:36:13.450Z,55.90
2022-07-29T16:39:21.613Z,56.10
2022-07-29T16:42:44.381Z,56.20
2022-07-29T16:45:48.589Z,56.40
2022-07-29T16:48:54.007Z,56.40
2022-07-29T16:51:58.647Z,56.60
2022-07-29T16:55:02.846Z,57.30
2022-07-29T16:58:06.384Z,57.10
2022-07-29T17:01:09.816Z,57.60
2022-07-29T17:04:15.041Z,57.50
2022-07-29T17:07:20.338Z,57.40
2022-07-29T17:10:24.517Z,57.20
2022-07-29T17:13:30.938Z,57.00
2022-07-29T17:16:34.377Z,57.10
2022-07-29T17:19:37.707Z,56.90
2022-07-29T17:22:43.053Z,57.20
2022-07-29T17:25:46.198Z,57.50
2022-07-29T17:28:49.611Z,57.50
2022-07-29T17:31:53.182Z,57.50
2022-07-29T17:34:56.975Z,57.70
2022-07-29T17:38:01.540Z,57.80
2022-07-29T17:41:07.312Z,57.80
2022-07-29T17:44:13.524Z,57.70
2022-07-29T17:47:16.821Z,57.90
2022-07-29T17:50:19.995Z,58.00
2022-07-29T17:53:24.546Z,58.20
2022-07-29T17:56:28.009Z,57.50
2022-07-29T17:59:31.113Z,59.20
2022-07-29T18:02:34.418Z,58.10
2022-07-29T18:05:38.192Z,58.60
2022-07-29T18:08:42.741Z,58.70
2022-07-29T18:11:46.336Z,58.90
2022-07-29T18:14:49.565Z,59.00
2022-07-29T18:17:57.135Z,59.00
2022-07-29T18:21:01.018Z,59.20
2022-07-29T18:24:06.093Z,59.40
2022-07-29T18:27:09.516Z,59.50
2022-07-29T18:30:14.947Z,59.70
2022-07-29T18:33:21.672Z,59.70
2022-07-29T18:36:25.619Z,60.00
2022-07-29T18:39:30.242Z,60.00
2022-07-29T18:42:34.059Z,60.20
2022-07-29T18:45:37.680Z,60.40
2022-07-29T18:48:43.474Z,60.20
2022-07-29T18:51:47.265Z,60.10
2022-07-29T18:54:51.838Z,61.10
2022-07-29T18:57:57.250Z,60.00
2022-07-29T19:01:01.912Z,60.90
2022-07-29T19:04:06.051Z,60.00
2022-07-29T19:07:09.422Z,60.10
2022-07-29T19:10:14.067Z,60.10
2022-07-29T19:13:17.277Z,60.40
2022-07-29T19:16:20.830Z,60.40
2022-07-29T19:19:24.046Z,61.60
2022-07-29T19:22:27.272Z,60.80
2022-07-29T19:25:31.877Z,61.10
2022-07-29T19:28:39.065Z,60.70
2022-07-29T19:31:43.017Z,61.40
2022-07-29T19:35:06.232Z,62.50
2022-07-29T19:38:09.385Z,61.70
2022-07-29T19:41:15.760Z,61.90
2022-07-29T19:44:18.925Z,62.20
2022-07-29T19:47:22.721Z,62.10
2022-07-29T19:50:26.835Z,62.20
2022-07-29T19:53:29.938Z,62.40
2022-07-29T19:56:34.553Z,62.50
2022-07-29T19:59:42.577Z,62.00
2022-07-29T20:02:48.106Z,62.60
2022-07-29T20:05:52.931Z,62.30
2022-07-29T20:08:58.738Z,62.30
2022-07-29T20:12:04.757Z,62.40
2022-07-29T20:15:10.448Z,62.80
2022-07-29T20:18:19.643Z,62.80
2022-07-29T20:21:22.935Z,63.60
2022-07-29T20:24:26.295Z,62.80
2022-07-29T20:27:30.814Z,62.90
2022-07-29T20:30:34.056Z,63.10
2022-07-29T20:33:41.669Z,63.10
2022-07-29T20:36:44.942Z,63.10
2022-07-29T20:39:48.471Z,63.20
2022-07-29T20:42:53.185Z,63.20
2022-07-29T20:45:56.450Z,64.50
2022-07-29T20:49:00.117Z,63.30
2022-07-29T20:52:03.427Z,63.40
2022-07-29T20:55:08.225Z,64.00
2022-07-29T20:58:12.791Z,63.70
2022-07-29T21:01:16.221Z,63.90
2022-07-29T21:04:19.466Z,63.90
2022-07-29T21:07:22.579Z,64.40
2022-07-29T21:10:26.688Z,64.00
2022-07-29T21:13:33.657Z,64.20
2022-07-29T21:16:39.610Z,64.40
2022-07-29T21:19:43.709Z,64.10
2022-07-29T21:22:46.970Z,64.50
2022-07-29T21:25:50.195Z,64.60
2022-07-29T21:28:55.530Z,64.80
2022-07-29T21:31:58.599Z,65.10
2022-07-29T21:35:02.568Z,65.10
2022-07-29T21:38:05.640Z,65.10
2022-07-29T21:41:11.637Z,65.10
2022-07-29T21:44:16.087Z,65.40
2022-07-29T21:47:19.173Z,65.10
2022-07-29T21:50:22.279Z,65.00
2022-07-29T21:53:26.885Z,64.90
2022-07-29T21:56:31.436Z,64.80
2022-07-29T21:59:36.770Z,64.90
2022-07-29T22:02:39.873Z,65.00
2022-07-29T22:05:43.320Z,65.40
2022-07-29T22:08:48.001Z,64.80
2022-07-29T22:11:51.738Z,64.90
2022-07-29T22:14:56.796Z,64.90
2022-07-29T22:18:00.370Z,66.30
2022-07-29T22:21:03.458Z,65.00
2022-07-29T22:24:07.581Z,65.10
2022-07-29T22:27:13.281Z,65.10
2022-07-29T22:30:18.425Z,66.30
2022-07-29T22:33:21.509Z,65.50
2022-07-29T22:36:24.595Z,66.30
2022-07-29T22:39:27.998Z,65.50
2022-07-29T22:42:31.810Z,65.60
2022-07-29T22:45:36.887Z,65.80
2022-07-29T22:48:40.622Z,66.00
2022-07-29T22:51:43.732Z,65.80
2022-07-29T22:54:46.786Z,66.00
2022-07-29T22:57:49.878Z,66.20
2022-07-29T23:00:54.514Z,66.40
2022-07-29T23:03:57.763Z,66.70
2022-07-29T23:07:01.457Z,67.10
2022-07-29T23:10:07.139Z,66.60
2022-07-29T23:13:11.051Z,66.60
2022-07-29T23:16:15.557Z,67.20
2022-07-29T23:19:29.908Z,66.90
2022-07-29T23:22:33.541Z,66.90
2022-07-29T23:25:36.706Z,67.30
2022-07-29T23:28:39.794Z,67.90
2022-07-29T23:31:48.324Z,67.70
2022-07-29T23:34:52.333Z,69.10
2022-07-29T23:37:55.577Z,68.50
2022-07-29T23:41:01.500Z,68.60
2022-07-29T23:44:05.313Z,69.20
2022-07-29T23:47:09.746Z,69.60
2022-07-29T23:50:16.401Z,69.30
2022-07-29T23:53:19.651Z,69.40
2022-07-29T23:56:23.034Z,70.30
2022-07-29T23:59:27.000Z,69.60
